Time;durP1;ratioP1;P1;durP2;ratioP2;P2;SDS_P1;SDS_P2;PMS_P1;PMS_P2;Temp;Humidity;BMP_temperature;BMP_pressure;BME280_temperature;BME280_humidity;BME280_pressure;Samples;Min_cycle;Max_cycle;Signal;HPM_P1;HPM_P2
2023/06/29 00:00:13;;;;;;;0.10;0.00;;;19.50;99.90;;;;;;5107661;28;20469;-79
2023/06/29 00:02:39;;;;;;;0.10;0.00;;;19.30;99.90;;;;;;5110485;27;20491;-79
2023/06/29 00:05:05;;;;;;;0.10;0.00;;;19.30;99.90;;;;;;5110816;28;20793;-79
2023/06/29 00:07:33;;;;;;;0.10;0.00;;;19.30;99.90;;;;;;5110093;28;20172;-79
2023/06/29 00:09:58;;;;;;;0.10;0.10;;;19.40;99.90;;;;;;5107873;28;20961;-80
2023/06/29 00:12:24;;;;;;;0.10;0.07;;;19.30;99.90;;;;;;5109247;27;20473;-80
2023/06/29 00:14:49;;;;;;;0.10;0.10;;;19.30;99.90;;;;;;5111122;28;20628;-80
2023/06/29 00:17:16;;;;;;;0.10;0.10;;;19.20;99.90;;;;;;5127712;27;20223;-79
2023/06/29 00:19:42;;;;;;;0.10;0.10;;;19.20;99.90;;;;;;5113069;27;20184;-79
2023/06/29 00:22:09;;;;;;;0.10;0.10;;;19.10;99.90;;;;;;5109886;28;20430;-79
2023/06/29 00:24:42;;;;;;;0.10;0.10;;;19.10;99.90;;;;;;5109391;28;20200;-79
2023/06/29 00:27:11;;;;;;;0.10;0.10;;;19.10;99.90;;;;;;5110571;28;20471;-79
2023/06/29 00:29:38;;;;;;;0.10;0.10;;;19.20;99.90;;;;;;5110766;28;20925;-79
2023/06/29 00:32:04;;;;;;;0.10;0.10;;;19.20;99.90;;;;;;5108028;28;20452;-79
2023/06/29 00:34:30;;;;;;;0.10;0.10;;;19.10;99.90;;;;;;5108228;28;20438;-79
2023/06/29 00:36:56;;;;;;;0.10;0.10;;;19.10;99.90;;;;;;5092852;28;20199;-79
2023/06/29 00:39:21;;;;;;;0.10;0.10;;;19.20;99.90;;;;;;5091904;28;20933;-79
2023/06/29 00:41:54;;;;;;;0.10;0.00;;;19.10;99.90;;;;;;5107757;28;20180;-79
2023/06/29 00:44:20;;;;;;;0.10;0.10;;;19.10;99.90;;;;;;5110452;28;20200;-79
2023/06/29 00:46:47;;;;;;;0.10;0.10;;;19.20;99.90;;;;;;5108202;28;20454;-79
2023/06/29 00:49:13;;;;;;;0.10;0.10;;;19.20;99.90;;;;;;5105567;28;20442;-79
2023/06/29 00:51:39;;;;;;;0.10;0.10;;;19.20;99.90;;;;;;5118805;28;20446;-79
2023/06/29 00:54:05;;;;;;;0.10;0.10;;;19.20;99.90;;;;;;5108867;28;20438;-79
2023/06/29 00:56:32;;;;;;;0.10;0.00;;;19.20;99.90;;;;;;5090412;28;20449;-79
2023/06/29 00:58:57;;;;;;;0.10;0.10;;;19.00;99.90;;;;;;5105813;28;20185;-79
2023/06/29 01:01:23;;;;;;;0.10;0.10;;;19.10;99.90;;;;;;5107067;28;20505;-79
2023/06/29 01:03:49;;;;;;;0.10;0.00;;;19.20;99.90;;;;;;5090822;28;20184;-79
2023/06/29 01:06:19;;;;;;;0.10;0.10;;;19.10;99.90;;;;;;5109886;28;20204;-79
2023/06/29 01:08:48;;;;;;;0.10;0.10;;;19.10;99.90;;;;;;5094849;28;20831;-79
2023/06/29 01:11:14;;;;;;;0.10;0.00;;;19.10;99.90;;;;;;5110425;28;20434;-80
2023/06/29 01:13:43;;;;;;;0.10;0.10;;;19.00;99.90;;;;;;5086721;28;20435;-79
2023/06/29 01:16:11;;;;;;;0.10;0.10;;;19.00;99.90;;;;;;5104348;28;20442;-79
2023/06/29 01:18:37;;;;;;;0.10;0.10;;;19.00;99.90;;;;;;5089120;28;20442;-79
2023/06/29 01:21:03;;;;;;;0.10;0.10;;;18.90;99.90;;;;;;5110479;28;20446;-80
2023/06/29 01:23:36;;;;;;;0.10;0.10;;;19.00;99.90;;;;;;5093652;28;20458;-79
2023/06/29 01:26:03;;;;;;;0.10;0.10;;;18.90;99.90;;;;;;5113185;28;20220;-80
2023/06/29 01:28:31;;;;;;;0.10;0.10;;;18.90;99.90;;;;;;5112513;27;20446;-79
2023/06/29 01:31:02;;;;;;;0.10;0.10;;;19.00;99.90;;;;;;5093472;28;20450;-80
2023/06/29 01:33:28;;;;;;;0.10;0.10;;;19.00;99.90;;;;;;5111002;28;20445;-79
2023/06/29 01:36:02;;;;;;;0.10;0.00;;;19.00;99.90;;;;;;5094356;28;20504;-79
2023/06/29 01:38:43;;;;;;;0.10;0.10;;;19.00;99.90;;;;;;5094334;28;20191;-80
2023/06/29 01:41:11;;;;;;;0.10;0.10;;;18.90;99.90;;;;;;5117916;27;20456;-80
2023/06/29 01:43:37;;;;;;;0.10;0.10;;;18.90;99.90;;;;;;5133299;27;20418;-80
2023/06/29 01:46:04;;;;;;;0.10;0.10;;;18.90;99.90;;;;;;5102245;27;20834;-80
2023/06/29 01:48:30;;;;;;;0.10;0.10;;;18.90;99.90;;;;;;5116097;27;20640;-79
2023/06/29 01:50:56;;;;;;;0.10;0.10;;;18.90;99.90;;;;;;5104270;27;20451;-79
2023/06/29 01:53:22;;;;;;;0.00;0.00;;;18.90;99.90;;;;;;5110993;27;21374;-79
2023/06/29 01:55:47;;;;;;;0.10;0.00;;;18.80;99.90;;;;;;5110038;28;20196;-79
2023/06/29 01:58:13;;;;;;;0.10;0.10;;;18.90;99.90;;;;;;5111104;28;20180;-79
2023/06/29 02:00:38;;;;;;;0.10;0.00;;;18.90;99.90;;;;;;5111663;27;20240;-79
2023/06/29 02:03:04;;;;;;;0.10;0.10;;;18.80;99.90;;;;;;5112730;27;20520;-79
2023/06/29 02:05:30;;;;;;;0.10;0.10;;;18.90;99.90;;;;;;5127436;27;20250;-80
2023/06/29 02:07:55;;;;;;;0.10;0.00;;;18.80;99.90;;;;;;5111721;27;20184;-80
2023/06/29 02:10:21;;;;;;;0.10;0.10;;;18.80;99.90;;;;;;5111019;27;20198;-79
2023/06/29 02:12:46;;;;;;;0.10;0.10;;;18.80;99.90;;;;;;5118281;27;20237;-79
2023/06/29 02:15:12;;;;;;;0.10;0.10;;;18.80;99.90;;;;;;5108412;28;21051;-79
2023/06/29 02:17:37;;;;;;;0.10;0.10;;;18.80;99.90;;;;;;5110142;27;20968;-80
2023/06/29 02:20:03;;;;;;;0.10;0.10;;;18.70;99.90;;;;;;5112551;28;20655;-80
2023/06/29 02:22:28;;;;;;;0.10;0.10;;;18.80;99.90;;;;;;5110944;28;20192;-80
2023/06/29 02:24:54;;;;;;;0.10;0.10;;;18.80;99.90;;;;;;5110035;28;20204;-80
2023/06/29 02:27:20;;;;;;;0.10;0.10;;;18.80;99.90;;;;;;5099331;27;20200;-80
2023/06/29 02:29:45;;;;;;;0.10;0.10;;;18.80;99.90;;;;;;5106203;28;20615;-80
2023/06/29 02:32:11;;;;;;;0.10;0.10;;;18.80;99.90;;;;;;5125447;27;20188;-80
2023/06/29 02:34:36;;;;;;;0.10;0.10;;;18.70;99.90;;;;;;5121836;27;20188;-80
2023/06/29 02:37:02;;;;;;;0.10;0.00;;;18.70;99.90;;;;;;5101312;28;20647;-80
2023/06/29 02:39:27;;;;;;;0.10;0.10;;;18.70;99.90;;;;;;5109481;28;20267;-79
2023/06/29 02:41:53;;;;;;;0.10;0.10;;;18.80;99.90;;;;;;5102480;28;20267;-80
2023/06/29 02:44:18;;;;;;;0.10;0.10;;;18.70;99.90;;;;;;5094215;28;20196;-79
2023/06/29 02:46:43;;;;;;;0.10;0.00;;;18.60;99.90;;;;;;5113564;27;20199;-80
2023/06/29 02:49:09;;;;;;;0.10;0.10;;;18.60;99.90;;;;;;5097324;28;20271;-79
2023/06/29 02:51:34;;;;;;;0.10;0.10;;;18.60;99.90;;;;;;5114407;27;20200;-79
2023/06/29 02:54:00;;;;;;;0.10;0.10;;;18.50;99.90;;;;;;5122180;27;20195;-80
2023/06/29 02:56:25;;;;;;;0.10;0.10;;;18.50;99.90;;;;;;5112028;28;20604;-79
2023/06/29 02:58:51;;;;;;;0.10;0.10;;;18.40;99.90;;;;;;5109287;28;20258;-79
2023/06/29 03:01:16;;;;;;;0.10;0.10;;;18.50;99.90;;;;;;5113865;27;20238;-79
2023/06/29 03:03:42;;;;;;;0.10;0.10;;;18.50;99.90;;;;;;5093557;28;20549;-79
2023/06/29 03:06:07;;;;;;;0.10;0.10;;;18.50;99.90;;;;;;5092223;28;20346;-80
2023/06/29 03:08:33;;;;;;;0.10;0.10;;;18.50;99.90;;;;;;5109240;28;20181;-79
2023/06/29 03:10:58;;;;;;;0.10;0.10;;;18.50;99.90;;;;;;5102831;28;20188;-79
2023/06/29 03:13:24;;;;;;;0.10;0.10;;;18.60;99.90;;;;;;5108676;28;20184;-79
2023/06/29 03:15:50;;;;;;;0.10;0.10;;;18.40;99.90;;;;;;5109263;27;20185;-79
2023/06/29 03:18:16;;;;;;;0.10;0.10;;;18.40;99.90;;;;;;5109233;28;20596;-79
2023/06/29 03:20:41;;;;;;;0.10;0.10;;;18.40;99.90;;;;;;5111874;28;20438;-79
2023/06/29 03:23:07;;;;;;;0.10;0.10;;;18.40;99.90;;;;;;5100566;28;20256;-79
2023/06/29 03:25:32;;;;;;;0.10;0.10;;;18.40;99.90;;;;;;5108127;28;20222;-80
2023/06/29 03:27:58;;;;;;;0.10;0.10;;;18.40;99.90;;;;;;5089870;28;20184;-79
2023/06/29 03:30:23;;;;;;;0.10;0.10;;;18.50;99.90;;;;;;5107272;28;20273;-79
2023/06/29 03:32:49;;;;;;;0.10;0.10;;;18.40;99.90;;;;;;5093195;28;20712;-79
2023/06/29 03:35:14;;;;;;;0.10;0.10;;;18.50;99.90;;;;;;5108438;28;20184;-79
2023/06/29 03:37:40;;;;;;;0.10;0.10;;;18.40;99.90;;;;;;5113389;27;20639;-80
2023/06/29 03:40:06;;;;;;;0.10;0.10;;;18.40;99.90;;;;;;5110478;27;20600;-79
2023/06/29 03:42:32;;;;;;;0.10;0.10;;;18.50;99.90;;;;;;5110131;28;20181;-80
2023/06/29 03:44:57;;;;;;;0.10;0.10;;;18.60;99.90;;;;;;5094950;28;21095;-79
2023/06/29 03:47:23;;;;;;;0.10;0.10;;;18.60;99.90;;;;;;5109118;28;20192;-79
2023/06/29 03:49:48;;;;;;;0.10;0.10;;;18.60;99.90;;;;;;5111450;28;20176;-79
2023/06/29 03:52:14;;;;;;;0.10;0.10;;;18.60;99.90;;;;;;5109199;28;20184;-79
2023/06/29 03:54:39;;;;;;;0.10;0.10;;;18.60;99.90;;;;;;5111169;27;20188;-79
2023/06/29 03:57:05;;;;;;;0.10;0.10;;;18.60;99.90;;;;;;5109183;27;20184;-79
2023/06/29 03:59:31;;;;;;;0.10;0.00;;;18.60;99.90;;;;;;5108800;28;20592;-79
2023/06/29 04:01:57;;;;;;;0.10;0.00;;;18.50;99.90;;;;;;5107412;27;20466;-79
2023/06/29 04:04:23;;;;;;;0.10;0.10;;;18.60;99.90;;;;;;5109203;28;20232;-78
2023/06/29 04:06:48;;;;;;;0.10;0.10;;;18.60;99.90;;;;;;5113786;27;20446;-79
2023/06/29 04:09:14;;;;;;;0.10;0.10;;;18.60;99.90;;;;;;5109435;28;20221;-79
2023/06/29 04:11:39;;;;;;;0.10;0.10;;;18.60;99.90;;;;;;5090167;28;20271;-79
2023/06/29 04:14:05;;;;;;;0.10;0.10;;;18.70;99.90;;;;;;5108884;28;20719;-79
2023/06/29 04:16:31;;;;;;;0.10;0.10;;;18.70;99.90;;;;;;5088062;28;20192;-79
2023/06/29 04:18:56;;;;;;;0.10;0.10;;;18.70;99.90;;;;;;5109315;28;20180;-79
2023/06/29 04:21:22;;;;;;;0.10;0.10;;;18.70;99.90;;;;;;5108613;28;20185;-79
2023/06/29 04:23:47;;;;;;;0.10;0.00;;;18.70;99.90;;;;;;5107796;28;21194;-78
2023/06/29 04:26:13;;;;;;;0.10;0.00;;;18.70;99.90;;;;;;5124162;27;20337;-79
2023/06/29 04:28:41;;;;;;;0.10;0.10;;;18.70;99.90;;;;;;5112815;27;20192;-79
2023/06/29 04:31:06;;;;;;;0.10;0.10;;;18.80;99.90;;;;;;5109028;27;20180;-79
2023/06/29 04:33:32;;;;;;;0.10;0.10;;;18.80;99.90;;;;;;5102832;28;20434;-79
2023/06/29 04:35:57;;;;;;;0.10;0.00;;;18.90;99.90;;;;;;5107517;28;20649;-80
2023/06/29 04:38:25;;;;;;;0.10;0.00;;;18.90;99.90;;;;;;5110017;27;20188;-79
2023/06/29 04:41:03;;;;;;;0.10;0.10;;;18.90;99.90;;;;;;5109480;27;20176;-78
2023/06/29 04:43:32;;;;;;;0.10;0.10;;;18.90;99.90;;;;;;5110126;28;20437;-80
2023/06/29 04:46:00;;;;;;;0.10;0.00;;;18.80;99.90;;;;;;5109959;28;20477;-79
2023/06/29 04:48:36;;;;;;;0.10;0.10;;;18.90;99.90;;;;;;5101180;28;20438;-80
2023/06/29 04:51:05;;;;;;;0.10;0.10;;;18.80;99.90;;;;;;5112121;28;20476;-79
2023/06/29 04:53:34;;;;;;;0.10;0.00;;;18.90;99.90;;;;;;5123495;28;20524;-80
2023/06/29 04:56:01;;;;;;;0.10;0.00;;;18.90;99.90;;;;;;5116476;27;20487;-79
2023/06/29 04:58:27;;;;;;;0.10;0.10;;;18.90;99.90;;;;;;5115667;27;20530;-81
2023/06/29 05:00:56;;;;;;;0.10;0.10;;;18.90;99.90;;;;;;5112759;27;20931;-79
2023/06/29 05:03:23;;;;;;;0.10;0.10;;;18.90;99.90;;;;;;5097697;28;20196;-80
2023/06/29 05:05:49;;;;;;;0.10;0.10;;;18.90;99.90;;;;;;5111579;28;20473;-80
2023/06/29 05:08:14;;;;;;;0.10;0.10;;;19.00;99.90;;;;;;5107405;28;20456;-80
2023/06/29 05:10:40;;;;;;;0.10;0.10;;;19.00;99.90;;;;;;5107446;28;20200;-80
2023/06/29 05:13:05;;;;;;;0.10;0.00;;;19.10;99.90;;;;;;5109170;28;20180;-80
2023/06/29 05:15:31;;;;;;;0.10;0.00;;;19.10;99.90;;;;;;5104803;28;20187;-80
2023/06/29 05:17:56;;;;;;;0.10;0.00;;;19.10;99.90;;;;;;5089105;28;20211;-80
2023/06/29 05:20:22;;;;;;;0.10;0.00;;;19.20;99.90;;;;;;5111816;28;20289;-80
2023/06/29 05:22:48;;;;;;;0.10;0.10;;;19.20;99.90;;;;;;5110251;28;20188;-80
2023/06/29 05:25:14;;;;;;;0.10;0.10;;;19.20;99.90;;;;;;5108168;27;20217;-79
2023/06/29 05:27:40;;;;;;;0.10;0.00;;;19.20;99.90;;;;;;5111814;28;20647;-79
2023/06/29 05:30:08;;;;;;;0.10;0.10;;;19.20;99.90;;;;;;5107521;28;20433;-81
2023/06/29 05:32:34;;;;;;;0.10;0.10;;;19.20;99.90;;;;;;5113733;27;21174;-79
2023/06/29 05:35:00;;;;;;;0.10;0.00;;;19.30;99.90;;;;;;5109558;27;20515;-80
2023/06/29 05:37:25;;;;;;;0.10;0.00;;;19.40;99.90;;;;;;5114601;27;20446;-79
2023/06/29 05:39:51;;;;;;;0.10;0.10;;;19.40;99.90;;;;;;5112865;27;20184;-79
2023/06/29 05:42:16;;;;;;;0.10;0.10;;;19.40;99.90;;;;;;5106738;27;20211;-80
2023/06/29 05:44:42;;;;;;;0.10;0.00;;;19.40;99.90;;;;;;5109614;28;20214;-80
2023/06/29 05:47:07;;;;;;;0.10;0.00;;;19.50;99.90;;;;;;5112369;28;20241;-80
2023/06/29 05:49:33;;;;;;;0.10;0.10;;;19.40;99.90;;;;;;5113700;28;20195;-80
2023/06/29 05:51:59;;;;;;;0.10;0.10;;;19.50;99.90;;;;;;5109872;28;20192;-78
2023/06/29 05:54:24;;;;;;;0.10;0.00;;;19.40;99.90;;;;;;5107722;28;20193;-77
2023/06/29 05:56:49;;;;;;;0.10;0.00;;;19.40;99.90;;;;;;5111248;28;20192;-77
2023/06/29 05:59:15;;;;;;;0.10;0.10;;;19.40;99.90;;;;;;5106691;28;20220;-77
2023/06/29 06:01:40;;;;;;;0.10;0.00;;;19.50;99.90;;;;;;5108218;28;20360;-78
2023/06/29 06:04:06;;;;;;;0.10;0.00;;;19.50;99.90;;;;;;5100382;28;20169;-78
2023/06/29 06:06:32;;;;;;;0.10;0.10;;;19.50;99.90;;;;;;5110099;28;20679;-79
2023/06/29 06:08:58;;;;;;;0.10;0.10;;;19.60;99.90;;;;;;5108387;28;20176;-79
2023/06/29 06:11:23;;;;;;;0.10;0.10;;;19.60;99.90;;;;;;5104954;27;20485;-79
2023/06/29 06:13:49;;;;;;;0.10;0.10;;;19.70;99.90;;;;;;5103572;27;20271;-81
2023/06/29 06:16:14;;;;;;;0.10;0.10;;;19.70;99.90;;;;;;5111657;27;20216;-79
2023/06/29 06:18:40;;;;;;;0.10;0.00;;;19.70;99.90;;;;;;5129699;27;20662;-81
2023/06/29 06:21:06;;;;;;;0.10;0.10;;;19.70;99.90;;;;;;5096265;27;20175;-79
2023/06/29 06:23:31;;;;;;;0.10;0.10;;;19.70;99.90;;;;;;5091184;28;20196;-79
2023/06/29 06:25:57;;;;;;;0.10;0.10;;;19.80;99.90;;;;;;5108656;28;20227;-79
2023/06/29 06:28:24;;;;;;;0.10;0.00;;;19.80;99.90;;;;;;5111406;28;20185;-79
2023/06/29 06:30:50;;;;;;;0.10;0.00;;;19.90;99.90;;;;;;5109809;28;20188;-80
2023/06/29 06:33:16;;;;;;;0.10;0.00;;;19.90;99.90;;;;;;5106687;28;20589;-79
2023/06/29 06:35:42;;;;;;;0.10;0.10;;;20.00;99.90;;;;;;5110235;28;20191;-79
2023/06/29 06:38:08;;;;;;;0.10;0.00;;;20.00;99.90;;;;;;5112760;27;20430;-80
2023/06/29 06:40:33;;;;;;;0.10;0.00;;;19.90;99.90;;;;;;5107856;28;20442;-79
2023/06/29 06:42:59;;;;;;;0.10;0.00;;;19.90;99.90;;;;;;5110061;27;20229;-80
2023/06/29 06:45:24;;;;;;;0.10;0.00;;;19.90;99.90;;;;;;5092902;28;20216;-80
2023/06/29 06:47:50;;;;;;;0.10;0.00;;;19.90;99.90;;;;;;5105971;27;20575;-79
2023/06/29 06:50:15;;;;;;;0.10;0.00;;;19.90;99.90;;;;;;5094445;28;20203;-80
2023/06/29 06:52:41;;;;;;;0.10;0.10;;;20.00;99.90;;;;;;5111238;27;20191;-80
2023/06/29 06:55:07;;;;;;;0.10;0.00;;;20.00;99.90;;;;;;5111784;28;20578;-80
2023/06/29 06:57:33;;;;;;;0.10;0.00;;;20.00;99.90;;;;;;5109926;28;20216;-80
2023/06/29 06:59:59;;;;;;;0.10;0.00;;;20.00;99.90;;;;;;5110041;28;20679;-80
2023/06/29 07:02:24;;;;;;;0.10;0.10;;;20.00;99.90;;;;;;5113032;27;20187;-79
2023/06/29 07:04:51;;;;;;;0.10;0.10;;;20.10;99.90;;;;;;5133395;27;20702;-80
2023/06/29 07:07:16;;;;;;;0.10;0.00;;;20.20;99.90;;;;;;5115410;27;20271;-79
2023/06/29 07:09:43;;;;;;;0.10;0.10;;;20.20;99.90;;;;;;5101613;28;20517;-80
2023/06/29 07:12:09;;;;;;;0.10;0.00;;;20.20;99.90;;;;;;5111589;28;20213;-81
2023/06/29 07:14:35;;;;;;;0.10;0.00;;;20.40;99.90;;;;;;5121226;27;20452;-78
2023/06/29 07:17:01;;;;;;;0.10;0.00;;;20.40;99.90;;;;;;5115876;27;20434;-80
2023/06/29 07:19:26;;;;;;;0.10;0.10;;;20.50;99.90;;;;;;5110366;28;20582;-81
2023/06/29 07:21:52;;;;;;;0.10;0.00;;;20.70;99.90;;;;;;5112276;27;20195;-81
2023/06/29 07:24:19;;;;;;;0.10;0.00;;;20.90;99.90;;;;;;5121340;27;20237;-79
2023/06/29 07:26:45;;;;;;;0.10;0.00;;;20.90;99.90;;;;;;5122662;27;20201;-79
2023/06/29 07:29:11;;;;;;;0.10;0.00;;;20.80;99.90;;;;;;5109133;28;20803;-79
2023/06/29 07:31:36;;;;;;;0.10;0.00;;;20.80;99.90;;;;;;5105849;27;20265;-80
2023/06/29 07:34:02;;;;;;;0.10;0.00;;;20.90;99.90;;;;;;5101023;28;20267;-79
2023/06/29 07:36:29;;;;;;;0.10;0.00;;;21.10;99.90;;;;;;5107625;27;20259;-79
2023/06/29 07:38:55;;;;;;;0.10;0.00;;;21.20;99.90;;;;;;5088477;28;20194;-80
2023/06/29 07:41:22;;;;;;;0.10;0.00;;;21.30;99.90;;;;;;5105435;28;20513;-80
2023/06/29 07:43:53;;;;;;;0.10;0.00;;;21.30;99.90;;;;;;5105981;27;21043;-79
2023/06/29 07:46:19;;;;;;;0.10;0.00;;;21.50;99.90;;;;;;5107585;28;20489;-80
2023/06/29 07:48:45;;;;;;;0.10;0.00;;;21.60;99.90;;;;;;5105578;27;20441;-81
2023/06/29 07:51:11;;;;;;;0.10;0.00;;;21.60;99.90;;;;;;5104034;28;20534;-80
2023/06/29 07:53:36;;;;;;;0.10;0.00;;;21.60;99.90;;;;;;5104501;28;21304;-79
2023/06/29 07:56:02;;;;;;;0.10;0.00;;;21.70;99.90;;;;;;5108566;28;20678;-80
2023/06/29 07:58:28;;;;;;;0.10;0.00;;;21.80;99.90;;;;;;5106223;28;20233;-80
2023/06/29 08:00:54;;;;;;;0.10;0.00;;;21.80;99.90;;;;;;5105027;28;20238;-79
2023/06/29 08:03:20;;;;;;;0.10;0.00;;;21.90;99.90;;;;;;5100503;27;20212;-78
2023/06/29 08:05:46;;;;;;;0.10;0.00;;;22.00;99.90;;;;;;5108859;28;20537;-79
2023/06/29 08:08:12;;;;;;;0.10;0.00;;;21.80;99.90;;;;;;5108573;28;20462;-80
2023/06/29 08:10:38;;;;;;;0.10;0.10;;;21.80;99.90;;;;;;5105213;28;20449;-78
2023/06/29 08:13:04;;;;;;;0.10;0.00;;;21.70;99.90;;;;;;5107961;28;20185;-79
2023/06/29 08:15:29;;;;;;;0.10;0.00;;;21.70;99.90;;;;;;5105070;28;20441;-79
2023/06/29 08:17:55;;;;;;;0.10;0.00;;;21.70;99.90;;;;;;5110532;28;20196;-79
2023/06/29 08:20:22;;;;;;;0.10;0.00;;;21.90;99.90;;;;;;5109898;28;20198;-76
2023/06/29 08:22:48;;;;;;;0.10;0.00;;;21.90;99.90;;;;;;5108000;28;20291;-76
2023/06/29 08:25:14;;;;;;;0.10;0.00;;;22.10;99.90;;;;;;5104357;28;20482;-80
2023/06/29 08:27:41;;;;;;;0.10;0.00;;;22.40;99.90;;;;;;5091162;28;20442;-79
2023/06/29 08:30:07;;;;;;;0.10;0.00;;;22.40;99.90;;;;;;5092324;28;20922;-79
2023/06/29 08:32:33;;;;;;;0.10;0.00;;;22.40;99.90;;;;;;5106620;28;20478;-80
2023/06/29 08:34:58;;;;;;;0.10;0.00;;;22.50;99.90;;;;;;5106728;28;20466;-80
2023/06/29 08:37:24;;;;;;;0.10;0.00;;;22.60;99.90;;;;;;5108906;28;20195;-78
2023/06/29 08:39:49;;;;;;;0.10;0.00;;;23.10;99.90;;;;;;5088616;28;20184;-75
2023/06/29 08:42:15;;;;;;;0.10;0.00;;;23.00;99.90;;;;;;5088626;28;20196;-77
2023/06/29 08:44:40;;;;;;;0.10;0.00;;;23.40;99.90;;;;;;5093652;28;20215;-76
2023/06/29 08:47:07;;;;;;;0.10;0.00;;;23.30;99.90;;;;;;5108455;28;20188;-76
2023/06/29 08:49:38;;;;;;;0.10;0.00;;;23.20;99.90;;;;;;5108925;28;20245;-76
2023/06/29 08:52:04;;;;;;;0.10;0.00;;;23.20;99.90;;;;;;5106780;28;20449;-78
2023/06/29 08:54:31;;;;;;;0.10;0.00;;;22.90;99.90;;;;;;5106655;28;20446;-78
2023/06/29 08:56:59;;;;;;;0.10;0.00;;;22.60;99.90;;;;;;5086760;28;21006;-78
2023/06/29 08:59:26;;;;;;;0.10;0.00;;;22.90;99.90;;;;;;5109858;28;20521;-78
2023/06/29 09:01:52;;;;;;;0.10;0.00;;;23.30;99.90;;;;;;5105227;28;20485;-80
2023/06/29 09:04:17;;;;;;;0.10;0.00;;;23.50;99.90;;;;;;5109887;28;20470;-78
2023/06/29 09:06:43;;;;;;;0.10;0.00;;;23.70;99.90;;;;;;5094021;28;20557;-80
2023/06/29 09:09:09;;;;;;;0.10;0.00;;;23.40;99.90;;;;;;5109744;28;20188;-79
2023/06/29 09:11:36;;;;;;;0.10;0.00;;;23.40;99.90;;;;;;5107883;28;20184;-79
2023/06/29 09:14:07;;;;;;;0.10;0.00;;;23.40;99.90;;;;;;5107893;28;20622;-78
2023/06/29 09:16:34;;;;;;;0.10;0.00;;;23.30;99.90;;;;;;5085977;28;20431;-79
2023/06/29 09:19:03;;;;;;;0.10;0.00;;;22.90;99.90;;;;;;5113908;28;20438;-78
2023/06/29 09:21:29;;;;;;;0.10;0.00;;;22.70;99.90;;;;;;5087653;28;20563;-79
2023/06/29 09:23:58;;;;;;;0.10;0.00;;;22.70;99.90;;;;;;5087568;28;21042;-78
2023/06/29 09:26:28;;;;;;;0.10;0.00;;;22.80;99.90;;;;;;5111366;28;20492;-79
2023/06/29 09:29:00;;;;;;;0.10;0.00;;;22.90;99.90;;;;;;5102618;28;20523;-78
2023/06/29 09:31:32;;;;;;;0.10;0.00;;;23.20;99.90;;;;;;5110473;28;20440;-79
2023/06/29 09:34:18;;;;;;;0.10;0.00;;;23.30;99.90;;;;;;5112433;28;20437;-78
2023/06/29 09:36:45;;;;;;;0.10;0.00;;;23.50;99.90;;;;;;5108781;28;20516;-78
2023/06/29 09:39:14;;;;;;;0.10;0.00;;;23.70;99.90;;;;;;5100511;28;20442;-78
2023/06/29 09:41:51;;;;;;;0.10;0.00;;;23.80;99.90;;;;;;5108008;28;20540;-75
2023/06/29 09:44:19;;;;;;;0.10;0.00;;;24.00;99.90;;;;;;5107382;28;20439;-76
2023/06/29 09:47:04;;;;;;;0.00;0.00;;;24.30;99.90;;;;;;5111783;27;20918;-75
2023/06/29 09:49:30;;;;;;;0.10;0.00;;;24.80;99.90;;;;;;5108929;27;20433;-75
2023/06/29 09:52:03;;;;;;;0.10;0.00;;;25.10;99.90;;;;;;5113763;28;20814;-77
2023/06/29 09:54:34;;;;;;;0.10;0.00;;;25.40;99.90;;;;;;5110168;27;20430;-77
2023/06/29 09:57:02;;;;;;;0.10;0.00;;;25.50;99.90;;;;;;5112911;27;20532;-76
2023/06/29 09:59:30;;;;;;;0.10;0.00;;;25.70;99.90;;;;;;5097465;27;20440;-75
2023/06/29 10:01:55;;;;;;;0.10;0.00;;;25.80;99.90;;;;;;5090113;27;20477;-76
2023/06/29 10:04:21;;;;;;;0.10;0.00;;;25.80;99.90;;;;;;5112878;27;20465;-77
2023/06/29 10:06:52;;;;;;;0.10;0.00;;;25.80;99.90;;;;;;5100034;27;20204;-76
2023/06/29 10:09:20;;;;;;;0.10;0.00;;;25.80;99.90;;;;;;5112304;27;20184;-79
2023/06/29 10:11:50;;;;;;;0.10;0.00;;;25.90;99.90;;;;;;5110194;27;20441;-80
2023/06/29 10:14:18;;;;;;;0.10;0.00;;;26.10;99.90;;;;;;5106626;27;20475;-79
2023/06/29 10:16:50;;;;;;;0.10;0.00;;;26.30;99.90;;;;;;5096037;28;21041;-76
2023/06/29 10:19:17;;;;;;;0.10;0.00;;;25.80;99.90;;;;;;5105484;28;20433;-75
2023/06/29 10:21:44;;;;;;;0.10;0.00;;;25.40;99.90;;;;;;5110195;27;20442;-74
2023/06/29 10:24:17;;;;;;;0.10;0.00;;;25.00;99.90;;;;;;5098804;27;21034;-76
2023/06/29 10:26:43;;;;;;;0.10;0.00;;;24.70;99.90;;;;;;5111461;28;20934;-76
2023/06/29 10:29:09;;;;;;;0.10;0.00;;;24.50;99.90;;;;;;5076369;28;20953;-76
2023/06/29 10:31:35;;;;;;;0.10;0.00;;;24.50;99.90;;;;;;5116308;27;20471;-76
2023/06/29 10:34:05;;;;;;;0.10;0.00;;;24.50;99.90;;;;;;5110066;28;20876;-76
2023/06/29 10:36:44;;;;;;;0.10;0.00;;;24.40;99.90;;;;;;5086329;28;20188;-76
2023/06/29 10:39:42;;;;;;;0.10;0.00;;;24.40;99.90;;;;;;5104398;28;20441;-76
2023/06/29 10:42:40;;;;;;;0.10;0.00;;;24.60;99.90;;;;;;5083697;28;21235;-76
2023/06/29 10:45:17;;;;;;;0.10;0.00;;;24.70;99.90;;;;;;5102363;27;20471;-78
2023/06/29 10:47:45;;;;;;;0.10;0.00;;;24.80;99.90;;;;;;5097778;27;20441;-78
2023/06/29 10:50:10;;;;;;;0.10;0.00;;;24.80;99.90;;;;;;5113531;27;20487;-77
2023/06/29 10:52:42;;;;;;;0.10;0.00;;;24.70;99.90;;;;;;5099918;27;20446;-76
2023/06/29 10:55:20;;;;;;;0.10;0.00;;;24.40;99.90;;;;;;5093754;27;20180;-76
2023/06/29 10:57:47;;;;;;;0.10;0.00;;;24.40;99.90;;;;;;5097115;27;20474;-77
2023/06/29 11:00:14;;;;;;;0.10;0.00;;;24.50;99.90;;;;;;5102708;28;20832;-78
2023/06/29 11:02:41;;;;;;;0.10;0.00;;;24.60;99.90;;;;;;5108819;28;20445;-77
2023/06/29 11:05:12;;;;;;;0.10;0.00;;;24.70;99.90;;;;;;5112059;27;20977;-79
2023/06/29 11:07:38;;;;;;;0.10;0.00;;;24.80;99.90;;;;;;5115220;27;20442;-77
2023/06/29 11:10:04;;;;;;;0.10;0.00;;;24.50;99.90;;;;;;5114363;27;20429;-76
2023/06/29 11:12:30;;;;;;;0.10;0.00;;;24.50;99.90;;;;;;5101688;28;20218;-79
2023/06/29 11:14:55;;;;;;;0.10;0.00;;;24.50;99.90;;;;;;5109428;27;20196;-78
2023/06/29 11:17:22;;;;;;;0.10;0.00;;;24.50;99.90;;;;;;5109818;27;20191;-79
2023/06/29 11:19:49;;;;;;;0.10;0.00;;;24.50;99.90;;;;;;5096272;28;20184;-77
2023/06/29 11:22:18;;;;;;;0.10;0.00;;;24.60;99.90;;;;;;5097553;27;20466;-79
2023/06/29 11:24:44;;;;;;;0.10;0.00;;;24.50;99.90;;;;;;5095553;27;20470;-78
2023/06/29 11:27:10;;;;;;;0.10;0.00;;;24.40;99.90;;;;;;5091160;27;20459;-77
2023/06/29 11:29:35;;;;;;;0.10;0.00;;;24.20;99.90;;;;;;5090088;28;20488;-77
2023/06/29 11:32:02;;;;;;;0.10;0.00;;;24.10;99.90;;;;;;5094683;27;20445;-76
2023/06/29 11:34:27;;;;;;;0.10;0.00;;;24.00;99.90;;;;;;5090589;28;20208;-76
2023/06/29 11:36:55;;;;;;;0.10;0.00;;;23.80;99.90;;;;;;5096865;27;20469;-76
2023/06/29 11:39:20;;;;;;;0.10;0.00;;;23.60;99.90;;;;;;5096435;27;20231;-76
2023/06/29 11:41:47;;;;;;;0.10;0.00;;;23.50;99.90;;;;;;5089810;27;20478;-77
2023/06/29 11:44:13;;;;;;;0.10;0.00;;;23.50;99.90;;;;;;5091979;27;20668;-77
2023/06/29 11:46:39;;;;;;;0.10;0.00;;;23.50;99.90;;;;;;5101914;28;20509;-78
2023/06/29 11:49:05;;;;;;;0.10;0.00;;;23.40;99.90;;;;;;5095390;27;20192;-76
2023/06/29 11:51:33;;;;;;;0.10;0.00;;;23.40;99.90;;;;;;5099750;28;20458;-77
2023/06/29 11:53:59;;;;;;;0.10;0.00;;;23.30;99.90;;;;;;5103634;28;20444;-76
2023/06/29 11:56:26;;;;;;;0.10;0.00;;;23.30;99.90;;;;;;5100289;28;21046;-75
2023/06/29 11:58:52;;;;;;;0.10;0.00;;;23.20;99.90;;;;;;5107603;28;20495;-75
2023/06/29 12:01:18;;;;;;;0.10;0.00;;;23.10;99.90;;;;;;5089967;28;20501;-76
2023/06/29 12:03:46;;;;;;;0.07;0.00;;;23.10;99.90;;;;;;5106051;28;20454;-75
2023/06/29 12:06:12;;;;;;;0.00;0.00;;;23.30;99.90;;;;;;5088693;28;20481;-75
2023/06/29 12:08:38;;;;;;;0.10;0.00;;;23.30;99.90;;;;;;5105353;28;20447;-75
2023/06/29 12:11:04;;;;;;;0.10;0.00;;;23.50;99.90;;;;;;5088606;28;20443;-76
2023/06/29 12:13:29;;;;;;;0.10;0.00;;;23.50;99.90;;;;;;5108295;28;20956;-76
2023/06/29 12:16:00;;;;;;;0.10;0.00;;;23.70;99.90;;;;;;5089084;28;20636;-75
2023/06/29 12:18:27;;;;;;;0.10;0.00;;;23.90;99.90;;;;;;5109637;28;20587;-75
2023/06/29 12:20:53;;;;;;;0.10;0.00;;;24.10;99.90;;;;;;5110723;28;20450;-76
2023/06/29 12:23:21;;;;;;;0.10;0.00;;;24.10;99.90;;;;;;5106060;28;20473;-77
2023/06/29 12:25:50;;;;;;;0.10;0.00;;;24.20;99.90;;;;;;5093103;27;20270;-77
2023/06/29 12:28:16;;;;;;;0.10;0.00;;;24.10;99.90;;;;;;5110587;27;20422;-77
2023/06/29 12:30:42;;;;;;;0.10;0.00;;;24.10;99.90;;;;;;5101721;28;20813;-76
2023/06/29 12:33:11;;;;;;;0.10;0.00;;;24.10;99.90;;;;;;5101074;27;20179;-76
2023/06/29 12:35:37;;;;;;;0.10;0.00;;;24.10;99.90;;;;;;5110149;27;20960;-77
2023/06/29 12:38:02;;;;;;;0.10;0.00;;;24.10;99.90;;;;;;5108948;28;20434;-76
2023/06/29 12:40:28;;;;;;;0.10;0.10;;;24.00;99.90;;;;;;5082708;28;20189;-80
2023/06/29 12:42:55;;;;;;;0.10;0.00;;;23.80;99.90;;;;;;5103976;28;20181;-79
2023/06/29 12:45:20;;;;;;;0.10;0.00;;;23.70;99.90;;;;;;5104270;28;20471;-78